sensor_id;sensor_type;location;lat;lon;timestamp;pressure;altitude;pressure_sealevel;temperature;humidity
13734;BME280;43298;52.560;13.508;2023-08-30T00:00:55;99949.91;;;14.57;100.00
13734;BME280;43298;52.560;13.508;2023-08-30T00:03:21;99950.81;;;14.56;100.00
13734;BME280;43298;52.560;13.508;2023-08-30T00:05:46;99954.38;;;14.55;100.00
13734;BME280;43298;52.560;13.508;2023-08-30T00:08:12;99956.84;;;14.57;100.00
13734;BME280;43298;52.560;13.508;2023-08-30T00:10:46;99957.69;;;14.57;100.00
13734;BME280;43298;52.560;13.508;2023-08-30T00:13:11;99956.66;;;14.60;100.00
13734;BME280;43298;52.560;13.508;2023-08-30T00:15:38;99953.31;;;14.58;100.00
13734;BME280;43298;52.560;13.508;2023-08-30T00:18:04;99952.59;;;14.56;100.00
13734;BME280;43298;52.560;13.508;2023-08-30T00:20:30;99954.25;;;14.57;100.00
13734;BME280;43298;52.560;13.508;2023-08-30T00:22:56;99957.91;;;14.54;100.00
13734;BME280;43298;52.560;13.508;2023-08-30T00:25:22;99949.47;;;14.51;100.00
13734;BME280;43298;52.560;13.508;2023-08-30T00:27:47;99957.28;;;14.51;100.00
13734;BME280;43298;52.560;13.508;2023-08-30T00:30:13;99953.13;;;14.48;100.00
13734;BME280;43298;52.560;13.508;2023-08-30T00:32:39;99950.09;;;14.54;100.00
13734;BME280;43298;52.560;13.508;2023-08-30T00:35:05;99951.88;;;14.54;100.00
13734;BME280;43298;52.560;13.508;2023-08-30T00:37:31;99945.13;;;14.51;100.00
13734;BME280;43298;52.560;13.508;2023-08-30T00:39:57;99939.91;;;14.51;100.00
13734;BME280;43298;52.560;13.508;2023-08-30T00:42:25;99940.13;;;14.48;100.00
13734;BME280;43298;52.560;13.508;2023-08-30T00:44:51;99939.06;;;14.51;100.00
13734;BME280;43298;52.560;13.508;2023-08-30T00:47:17;99937.53;;;14.48;100.00
13734;BME280;43298;52.560;13.508;2023-08-30T00:49:42;99941.78;;;14.49;100.00
13734;BME280;43298;52.560;13.508;2023-08-30T00:52:09;99942.50;;;14.51;100.00
13734;BME280;43298;52.560;13.508;2023-08-30T00:54:36;99933.06;;;14.50;100.00
13734;BME280;43298;52.560;13.508;2023-08-30T00:57:03;99934.81;;;14.50;100.00
13734;BME280;43298;52.560;13.508;2023-08-30T00:59:32;99939.06;;;14.51;100.00
13734;BME280;43298;52.560;13.508;2023-08-30T01:01:59;99940.97;;;14.49;100.00
13734;BME280;43298;52.560;13.508;2023-08-30T01:04:27;99935.88;;;14.47;100.00
13734;BME280;43298;52.560;13.508;2023-08-30T01:06:53;99935.03;;;14.47;100.00
13734;BME280;43298;52.560;13.508;2023-08-30T01:09:19;99940.56;;;14.42;100.00
13734;BME280;43298;52.560;13.508;2023-08-30T01:12:02;99950.97;;;14.42;100.00
13734;BME280;43298;52.560;13.508;2023-08-30T01:14:45;99959.69;;;14.41;100.00
13734;BME280;43298;52.560;13.508;2023-08-30T01:17:17;99953.59;;;14.42;100.00
13734;BME280;43298;52.560;13.508;2023-08-30T01:22:40;99952.75;;;14.42;100.00
13734;BME280;43298;52.560;13.508;2023-08-30T01:27:42;99955.13;;;14.45;100.00
13734;BME280;43298;52.560;13.508;2023-08-30T01:30:10;99952.53;;;14.45;100.00
13734;BME280;43298;52.560;13.508;2023-08-30T01:32:37;99962.19;;;14.43;100.00
13734;BME280;43298;52.560;13.508;2023-08-30T01:35:05;99965.84;;;14.40;100.00
13734;BME280;43298;52.560;13.508;2023-08-30T01:37:32;99964.91;;;14.41;100.00
13734;BME280;43298;52.560;13.508;2023-08-30T01:39:59;99954.50;;;14.41;100.00
13734;BME280;43298;52.560;13.508;2023-08-30T01:42:27;99958.78;;;14.42;100.00
13734;BME280;43298;52.560;13.508;2023-08-30T01:44:56;99963.97;;;14.42;100.00
13734;BME280;43298;52.560;13.508;2023-08-30T01:47:26;99970.00;;;14.43;100.00
13734;BME280;43298;52.560;13.508;2023-08-30T01:49:55;99970.84;;;14.43;100.00
13734;BME280;43298;52.560;13.508;2023-08-30T01:52:23;99971.78;;;14.42;100.00
13734;BME280;43298;52.560;13.508;2023-08-30T01:54:51;99980.50;;;14.41;100.00
13734;BME280;43298;52.560;13.508;2023-08-30T01:57:18;99979.91;;;14.38;100.00
13734;BME280;43298;52.560;13.508;2023-08-30T01:59:44;99984.38;;;14.36;100.00
13734;BME280;43298;52.560;13.508;2023-08-30T02:02:10;99976.66;;;14.34;100.00
13734;BME280;43298;52.560;13.508;2023-08-30T02:04:36;99965.88;;;14.28;100.00
13734;BME280;43298;52.560;13.508;2023-08-30T02:07:16;99960.66;;;14.28;100.00
13734;BME280;43298;52.560;13.508;2023-08-30T02:10:05;99963.38;;;14.26;100.00
13734;BME280;43298;52.560;13.508;2023-08-30T02:12:45;99968.03;;;14.21;100.00
13734;BME280;43298;52.560;13.508;2023-08-30T02:15:12;99971.47;;;14.22;100.00
13734;BME280;43298;52.560;13.508;2023-08-30T02:17:39;99977.78;;;14.18;100.00
13734;BME280;43298;52.560;13.508;2023-08-30T02:20:06;99976.75;;;14.20;100.00
13734;BME280;43298;52.560;13.508;2023-08-30T02:22:33;99974.34;;;14.17;100.00
13734;BME280;43298;52.560;13.508;2023-08-30T02:24:59;99970.00;;;14.18;100.00
13734;BME280;43298;52.560;13.508;2023-08-30T02:27:33;99972.38;;;14.21;100.00
13734;BME280;43298;52.560;13.508;2023-08-30T02:30:00;99978.75;;;14.17;100.00
13734;BME280;43298;52.560;13.508;2023-08-30T02:32:26;99982.16;;;14.17;100.00
13734;BME280;43298;52.560;13.508;2023-08-30T02:34:53;99978.75;;;14.17;100.00
13734;BME280;43298;52.560;13.508;2023-08-30T02:37:19;99979.56;;;14.17;100.00
13734;BME280;43298;52.560;13.508;2023-08-30T02:39:45;99973.53;;;14.17;100.00
13734;BME280;43298;52.560;13.508;2023-08-30T02:42:11;99974.16;;;14.20;100.00
13734;BME280;43298;52.560;13.508;2023-08-30T02:44:37;99967.28;;;14.19;100.00
13734;BME280;43298;52.560;13.508;2023-08-30T02:47:03;99954.28;;;14.19;100.00
13734;BME280;43298;52.560;13.508;2023-08-30T02:49:28;99953.53;;;14.17;100.00
13734;BME280;43298;52.560;13.508;2023-08-30T02:51:54;99946.00;;;14.14;100.00
13734;BME280;43298;52.560;13.508;2023-08-30T02:54:20;99952.53;;;14.07;100.00
13734;BME280;43298;52.560;13.508;2023-08-30T02:56:48;99948.16;;;14.08;100.00
13734;BME280;43298;52.560;13.508;2023-08-30T02:59:13;99951.09;;;14.03;100.00
13734;BME280;43298;52.560;13.508;2023-08-30T03:01:39;99949.59;;;13.99;100.00
13734;BME280;43298;52.560;13.508;2023-08-30T03:04:06;99951.81;;;13.93;100.00
13734;BME280;43298;52.560;13.508;2023-08-30T03:06:35;99939.75;;;13.92;100.00
13734;BME280;43298;52.560;13.508;2023-08-30T03:09:01;99933.81;;;13.90;100.00
13734;BME280;43298;52.560;13.508;2023-08-30T03:11:28;99926.31;;;13.85;100.00
13734;BME280;43298;52.560;13.508;2023-08-30T03:13:55;99921.34;;;13.82;100.00
13734;BME280;43298;52.560;13.508;2023-08-30T03:16:22;99937.97;;;13.80;100.00
13734;BME280;43298;52.560;13.508;2023-08-30T03:18:48;99928.91;;;13.73;100.00
13734;BME280;43298;52.560;13.508;2023-08-30T03:21:14;99923.09;;;13.69;100.00
13734;BME280;43298;52.560;13.508;2023-08-30T03:23:40;99923.41;;;13.65;100.00
13734;BME280;43298;52.560;13.508;2023-08-30T03:26:14;99928.81;;;13.62;100.00
13734;BME280;43298;52.560;13.508;2023-08-30T03:28:41;99931.72;;;13.57;100.00
13734;BME280;43298;52.560;13.508;2023-08-30T03:31:16;99937.13;;;13.54;100.00
13734;BME280;43298;52.560;13.508;2023-08-30T03:33:43;99948.44;;;13.53;100.00
13734;BME280;43298;52.560;13.508;2023-08-30T03:36:11;99944.19;;;13.52;100.00
13734;BME280;43298;52.560;13.508;2023-08-30T03:38:38;99952.16;;;13.49;100.00
13734;BME280;43298;52.560;13.508;2023-08-30T03:41:05;99963.50;;;13.48;100.00
13734;BME280;43298;52.560;13.508;2023-08-30T03:43:31;99959.97;;;13.49;100.00
13734;BME280;43298;52.560;13.508;2023-08-30T03:45:59;99963.50;;;13.48;100.00
13734;BME280;43298;52.560;13.508;2023-08-30T03:48:26;99960.06;;;13.48;100.00
13734;BME280;43298;52.560;13.508;2023-08-30T03:50:52;99969.53;;;13.49;100.00
13734;BME280;43298;52.560;13.508;2023-08-30T03:53:17;99968.59;;;13.50;100.00
13734;BME280;43298;52.560;13.508;2023-08-30T03:55:43;99970.44;;;13.48;100.00
13734;BME280;43298;52.560;13.508;2023-08-30T03:58:09;99979.09;;;13.48;100.00
13734;BME280;43298;52.560;13.508;2023-08-30T04:00:38;99976.38;;;13.50;100.00
13734;BME280;43298;52.560;13.508;2023-08-30T04:03:09;99974.63;;;13.50;100.00
13734;BME280;43298;52.560;13.508;2023-08-30T04:05:38;99966.00;;;13.50;100.00
13734;BME280;43298;52.560;13.508;2023-08-30T04:08:05;99966.00;;;13.50;100.00
13734;BME280;43298;52.560;13.508;2023-08-30T04:10:39;99966.00;;;13.50;100.00
13734;BME280;43298;52.560;13.508;2023-08-30T04:13:06;99966.59;;;13.53;100.00
13734;BME280;43298;52.560;13.508;2023-08-30T04:15:38;99967.56;;;13.52;100.00
13734;BME280;43298;52.560;13.508;2023-08-30T04:18:06;99969.09;;;13.55;100.00
13734;BME280;43298;52.560;13.508;2023-08-30T04:20:32;99970.91;;;13.54;100.00
13734;BME280;43298;52.560;13.508;2023-08-30T04:22:59;99971.00;;;13.53;100.00
13734;BME280;43298;52.560;13.508;2023-08-30T04:25:28;99972.56;;;13.55;100.00
13734;BME280;43298;52.560;13.508;2023-08-30T04:27:54;99968.50;;;13.51;100.00
13734;BME280;43298;52.560;13.508;2023-08-30T04:30:20;99974.53;;;13.52;100.00
13734;BME280;43298;52.560;13.508;2023-08-30T04:32:45;99978.59;;;13.56;100.00
13734;BME280;43298;52.560;13.508;2023-08-30T04:35:11;99983.69;;;13.57;100.00
13734;BME280;43298;52.560;13.508;2023-08-30T04:37:37;99979.50;;;13.55;100.00
13734;BME280;43298;52.560;13.508;2023-08-30T04:40:06;99985.34;;;13.58;100.00
13734;BME280;43298;52.560;13.508;2023-08-30T04:42:33;99985.16;;;13.61;100.00
13734;BME280;43298;52.560;13.508;2023-08-30T04:44:59;99987.75;;;13.61;100.00
13734;BME280;43298;52.560;13.508;2023-08-30T04:47:28;99989.41;;;13.62;100.00
13734;BME280;43298;52.560;13.508;2023-08-30T04:49:53;99991.81;;;13.65;100.00
13734;BME280;43298;52.560;13.508;2023-08-30T04:52:19;99995.84;;;13.69;100.00
13734;BME280;43298;52.560;13.508;2023-08-30T04:54:45;99983.63;;;13.71;100.00
13734;BME280;43298;52.560;13.508;2023-08-30T04:57:12;99985.88;;;13.76;100.00
13734;BME280;43298;52.560;13.508;2023-08-30T04:59:44;99976.44;;;13.75;100.00
13734;BME280;43298;52.560;13.508;2023-08-30T05:02:10;99987.66;;;13.75;100.00
13734;BME280;43298;52.560;13.508;2023-08-30T05:04:36;99994.13;;;13.82;100.00
13734;BME280;43298;52.560;13.508;2023-08-30T05:07:02;99993.69;;;13.88;100.00
13734;BME280;43298;52.560;13.508;2023-08-30T05:09:30;100000.34;;;13.92;100.00
13734;BME280;43298;52.560;13.508;2023-08-30T05:11:56;100000.69;;;14.00;100.00
13734;BME280;43298;52.560;13.508;2023-08-30T05:14:22;99994.94;;;14.08;100.00
13734;BME280;43298;52.560;13.508;2023-08-30T05:16:49;99990.59;;;14.08;100.00
13734;BME280;43298;52.560;13.508;2023-08-30T05:19:15;99988.41;;;14.15;100.00
13734;BME280;43298;52.560;13.508;2023-08-30T05:21:44;99990.41;;;14.24;100.00
13734;BME280;43298;52.560;13.508;2023-08-30T05:24:10;99978.44;;;14.34;100.00
13734;BME280;43298;52.560;13.508;2023-08-30T05:26:37;99991.22;;;14.37;100.00
13734;BME280;43298;52.560;13.508;2023-08-30T05:29:03;99989.88;;;14.44;100.00
13734;BME280;43298;52.560;13.508;2023-08-30T05:31:30;99988.84;;;14.46;100.00
13734;BME280;43298;52.560;13.508;2023-08-30T05:33:55;99986.53;;;14.54;100.00
13734;BME280;43298;52.560;13.508;2023-08-30T05:36:21;99979.78;;;14.52;100.00
13734;BME280;43298;52.560;13.508;2023-08-30T05:38:47;99977.25;;;14.63;100.00
13734;BME280;43298;52.560;13.508;2023-08-30T05:41:13;99973.09;;;14.60;100.00
13734;BME280;43298;52.560;13.508;2023-08-30T05:43:38;99975.06;;;14.57;100.00
13734;BME280;43298;52.560;13.508;2023-08-30T05:46:04;99977.38;;;14.61;100.00
13734;BME280;43298;52.560;13.508;2023-08-30T05:48:31;99983.38;;;14.74;100.00
13734;BME280;43298;52.560;13.508;2023-08-30T05:50:57;99976.34;;;14.87;100.00
13734;BME280;43298;52.560;13.508;2023-08-30T05:53:24;99970.44;;;14.85;100.00
13734;BME280;43298;52.560;13.508;2023-08-30T05:55:50;99979.47;;;14.92;100.00
13734;BME280;43298;52.560;13.508;2023-08-30T05:58:16;99981.22;;;14.92;100.00
13734;BME280;43298;52.560;13.508;2023-08-30T06:00:44;99981.13;;;15.17;100.00
13734;BME280;43298;52.560;13.508;2023-08-30T06:03:09;99976.88;;;15.16;100.00
13734;BME280;43298;52.560;13.508;2023-08-30T06:05:36;99973.78;;;15.22;100.00
13734;BME280;43298;52.560;13.508;2023-08-30T06:08:02;99980.22;;;15.29;100.00
13734;BME280;43298;52.560;13.508;2023-08-30T06:10:29;99974.38;;;15.38;100.00
13734;BME280;43298;52.560;13.508;2023-08-30T06:12:55;99972.56;;;15.51;100.00
13734;BME280;43298;52.560;13.508;2023-08-30T06:15:21;99978.56;;;15.52;100.00
13734;BME280;43298;52.560;13.508;2023-08-30T06:17:46;99977.97;;;15.83;100.00
13734;BME280;43298;52.560;13.508;2023-08-30T06:20:13;99980.56;;;15.83;100.00
13734;BME280;43298;52.560;13.508;2023-08-30T06:22:39;99977.50;;;15.89;100.00
13734;BME280;43298;52.560;13.508;2023-08-30T06:25:07;99979.19;;;16.01;100.00
13734;BME280;43298;52.560;13.508;2023-08-30T06:27:33;99977.66;;;16.09;100.00
13734;BME280;43298;52.560;13.508;2023-08-30T06:29:59;99977.03;;;16.06;100.00
13734;BME280;43298;52.560;13.508;2023-08-30T06:32:25;99988.88;;;15.99;100.00
13734;BME280;43298;52.560;13.508;2023-08-30T06:34:50;99983.84;;;16.08;100.00
13734;BME280;43298;52.560;13.508;2023-08-30T06:37:16;99989.50;;;16.02;100.00
13734;BME280;43298;52.560;13.508;2023-08-30T06:39:42;99977.66;;;16.09;100.00
13734;BME280;43298;52.560;13.508;2023-08-30T06:42:08;99979.44;;;16.20;100.00
13734;BME280;43298;52.560;13.508;2023-08-30T06:44:34;99979.09;;;16.24;100.00
13734;BME280;43298;52.560;13.508;2023-08-30T06:47:00;99978.50;;;16.21;100.00
13734;BME280;43298;52.560;13.508;2023-08-30T06:49:26;99966.38;;;16.20;100.00
13734;BME280;43298;52.560;13.508;2023-08-30T06:51:51;99966.63;;;16.17;100.00
13734;BME280;43298;52.560;13.508;2023-08-30T06:54:17;99954.28;;;16.41;100.00
13734;BME280;43298;52.560;13.508;2023-08-30T06:57:00;99952.78;;;16.49;100.00
13734;BME280;43298;52.560;13.508;2023-08-30T06:59:27;99949.94;;;16.52;100.00
13734;BME280;43298;52.560;13.508;2023-08-30T07:01:53;99942.44;;;16.59;100.00
13734;BME280;43298;52.560;13.508;2023-08-30T07:04:19;99948.81;;;16.77;100.00
13734;BME280;43298;52.560;13.508;2023-08-30T07:06:44;99944.41;;;16.88;100.00
13734;BME280;43298;52.560;13.508;2023-08-30T07:09:10;99941.69;;;16.90;100.00
13734;BME280;43298;52.560;13.508;2023-08-30T07:11:38;99940.69;;;17.02;100.00
13734;BME280;43298;52.560;13.508;2023-08-30T07:14:04;99948.31;;;16.94;100.00
13734;BME280;43298;52.560;13.508;2023-08-30T07:16:31;99950.84;;;16.73;100.00
13734;BME280;43298;52.560;13.508;2023-08-30T07:18:58;99948.56;;;16.91;100.00
13734;BME280;43298;52.560;13.508;2023-08-30T07:21:24;99941.06;;;16.97;100.00
13734;BME280;43298;52.560;13.508;2023-08-30T07:23:50;99937.28;;;17.22;100.00
13734;BME280;43298;52.560;13.508;2023-08-30T07:26:16;99942.19;;;17.47;100.00
13734;BME280;43298;52.560;13.508;2023-08-30T07:28:42;99940.88;;;17.52;100.00
13734;BME280;43298;52.560;13.508;2023-08-30T07:31:07;99938.69;;;17.57;100.00
13734;BME280;43298;52.560;13.508;2023-08-30T07:33:35;99943.66;;;17.60;100.00
13734;BME280;43298;52.560;13.508;2023-08-30T07:36:01;99942.91;;;17.69;100.00
13734;BME280;43298;52.560;13.508;2023-08-30T07:38:28;99964.59;;;17.60;100.00
13734;BME280;43298;52.560;13.508;2023-08-30T07:40:54;99962.69;;;17.62;100.00
13734;BME280;43298;52.560;13.508;2023-08-30T07:43:20;99968.22;;;17.69;100.00
13734;BME280;43298;52.560;13.508;2023-08-30T07:45:45;99962.03;;;17.70;100.00
13734;BME280;43298;52.560;13.508;2023-08-30T07:48:12;99967.13;;;17.71;100.00
13734;BME280;43298;52.560;13.508;2023-08-30T07:50:38;99969.13;;;17.58;100.00
13734;BME280;43298;52.560;13.508;2023-08-30T07:53:03;99962.50;;;17.75;100.00
13734;BME280;43298;52.560;13.508;2023-08-30T07:55:29;99972.25;;;17.73;100.00
13734;BME280;43298;52.560;13.508;2023-08-30T07:57:55;99970.38;;;17.32;100.00
13734;BME280;43298;52.560;13.508;2023-08-30T08:00:21;99972.91;;;17.65;100.00
13734;BME280;43298;52.560;13.508;2023-08-30T08:02:47;99972.06;;;17.65;100.00
13734;BME280;43298;52.560;13.508;2023-08-30T08:05:13;99978.25;;;17.43;100.00
13734;BME280;43298;52.560;13.508;2023-08-30T08:07:42;99971.19;;;17.44;100.00
13734;BME280;43298;52.560;13.508;2023-08-30T08:10:09;99961.84;;;17.62;100.00
13734;BME280;43298;52.560;13.508;2023-08-30T08:12:35;99965.53;;;17.59;100.00
13734;BME280;43298;52.560;13.508;2023-08-30T08:15:01;99966.75;;;17.76;100.00
13734;BME280;43298;52.560;13.508;2023-08-30T08:17:28;99983.78;;;17.50;100.00
13734;BME280;43298;52.560;13.508;2023-08-30T08:19:54;99983.53;;;17.73;100.00
13734;BME280;43298;52.560;13.508;2023-08-30T08:22:20;99982.69;;;17.73;100.00
13734;BME280;43298;52.560;13.508;2023-08-30T08:24:45;99988.41;;;17.78;100.00
13734;BME280;43298;52.560;13.508;2023-08-30T08:27:12;99997.19;;;17.77;100.00
13734;BME280;43298;52.560;13.508;2023-08-30T08:29:38;100000.69;;;17.66;100.00
13734;BME280;43298;52.560;13.508;2023-08-30T08:32:04;100008.41;;;17.68;100.00
13734;BME280;43298;52.560;13.508;2023-08-30T08:34:30;100008.09;;;17.61;100.00
13734;BME280;43298;52.560;13.508;2023-08-30T08:36:56;99999.66;;;17.78;100.00
13734;BME280;43298;52.560;13.508;2023-08-30T08:39:22;99994.84;;;17.95;100.00
13734;BME280;43298;52.560;13.508;2023-08-30T08:41:48;99989.22;;;17.99;100.00
13734;BME280;43298;52.560;13.508;2023-08-30T08:44:14;99985.41;;;18.33;100.00
13734;BME280;43298;52.560;13.508;2023-08-30T08:46:41;99991.09;;;18.18;100.00
13734;BME280;43298;52.560;13.508;2023-08-30T08:49:14;99991.50;;;18.13;100.00
13734;BME280;43298;52.560;13.508;2023-08-30T08:51:42;99989.94;;;18.31;100.00
13734;BME280;43298;52.560;13.508;2023-08-30T08:54:09;99990.38;;;18.66;100.00
13734;BME280;43298;52.560;13.508;2023-08-30T08:56:37;99986.56;;;18.80;100.00
13734;BME280;43298;52.560;13.508;2023-08-30T08:59:04;99987.00;;;18.85;100.00
13734;BME280;43298;52.560;13.508;2023-08-30T09:01:35;99992.44;;;19.02;100.00
13734;BME280;43298;52.560;13.508;2023-08-30T09:04:06;99994.25;;;19.30;100.00
13734;BME280;43298;52.560;13.508;2023-08-30T09:06:34;99990.28;;;19.45;100.00
13734;BME280;43298;52.560;13.508;2023-08-30T09:09:02;99997.59;;;19.70;100.00
13734;BME280;43298;52.560;13.508;2023-08-30T09:11:29;100007.25;;;19.79;100.00
13734;BME280;43298;52.560;13.508;2023-08-30T09:13:55;100009.00;;;20.17;100.00
13734;BME280;43298;52.560;13.508;2023-08-30T09:16:21;100003.16;;;20.32;100.00
13734;BME280;43298;52.560;13.508;2023-08-30T09:19:00;100006.81;;;20.49;100.00
13734;BME280;43298;52.560;13.508;2023-08-30T09:21:27;100004.00;;;20.70;100.00
13734;BME280;43298;52.560;13.508;2023-08-30T09:24:05;99997.75;;;20.98;100.00
13734;BME280;43298;52.560;13.508;2023-08-30T09:26:32;100008.19;;;21.17;100.00
13734;BME280;43298;52.560;13.508;2023-08-30T09:29:05;100012.03;;;21.75;100.00
13734;BME280;43298;52.560;13.508;2023-08-30T09:31:36;100011.41;;;21.11;100.00
13734;BME280;43298;52.560;13.508;2023-08-30T09:34:03;100012.25;;;21.29;100.00
13734;BME280;43298;52.560;13.508;2023-08-30T09:36:40;100020.56;;;21.07;100.00
13734;BME280;43298;52.560;13.508;2023-08-30T09:39:14;100026.84;;;20.87;100.00
13734;BME280;43298;52.560;13.508;2023-08-30T09:41:45;100016.84;;;21.00;100.00
13734;BME280;43298;52.560;13.508;2023-08-30T09:44:18;100025.59;;;21.00;100.00
13734;BME280;43298;52.560;13.508;2023-08-30T09:46:50;100028.03;;;21.29;100.00
13734;BME280;43298;52.560;13.508;2023-08-30T09:49:20;100019.53;;;21.70;100.00
13734;BME280;43298;52.560;13.508;2023-08-30T09:51:48;100034.19;;;21.55;100.00
13734;BME280;43298;52.560;13.508;2023-08-30T09:54:22;100037.38;;;20.96;100.00
13734;BME280;43298;52.560;13.508;2023-08-30T09:56:49;100034.63;;;21.15;100.00
13734;BME280;43298;52.560;13.508;2023-08-30T09:59:18;100033.47;;;20.91;100.00
13734;BME280;43298;52.560;13.508;2023-08-30T10:01:47;100037.91;;;21.17;100.00
13734;BME280;43298;52.560;13.508;2023-08-30T10:04:14;100041.22;;;21.81;100.00
13734;BME280;43298;52.560;13.508;2023-08-30T10:06:40;100035.28;;;22.22;100.00
13734;BME280;43298;52.560;13.508;2023-08-30T10:09:08;100038.78;;;22.05;100.00
13734;BME280;43298;52.560;13.508;2023-08-30T10:11:36;100038.28;;;22.02;100.00
13734;BME280;43298;52.560;13.508;2023-08-30T10:14:04;100038.34;;;21.57;100.00
13734;BME280;43298;52.560;13.508;2023-08-30T10:16:42;100025.81;;;21.24;100.00
13734;BME280;43298;52.560;13.508;2023-08-30T10:19:31;100015.66;;;21.12;100.00
13734;BME280;43298;52.560;13.508;2023-08-30T10:22:05;100003.72;;;21.17;100.00
13734;BME280;43298;52.560;13.508;2023-08-30T10:24:50;99992.78;;;21.39;100.00
13734;BME280;43298;52.560;13.508;2023-08-30T10:27:18;99996.31;;;21.83;100.00
13734;BME280;43298;52.560;13.508;2023-08-30T10:29:46;100000.81;;;21.90;100.00
13734;BME280;43298;52.560;13.508;2023-08-30T10:32:18;100011.59;;;22.48;100.00
13734;BME280;43298;52.560;13.508;2023-08-30T10:34:48;100000.97;;;22.40;100.00
13734;BME280;43298;52.560;13.508;2023-08-30T10:37:15;100006.38;;;22.05;100.00
13734;BME280;43298;52.560;13.508;2023-08-30T10:39:42;100008.56;;;21.92;100.00
13734;BME280;43298;52.560;13.508;2023-08-30T10:42:14;100005.25;;;21.20;100.00
13734;BME280;43298;52.560;13.508;2023-08-30T10:45:02;99996.81;;;21.16;100.00
13734;BME280;43298;52.560;13.508;2023-08-30T10:47:31;100001.41;;;21.14;100.00
13734;BME280;43298;52.560;13.508;2023-08-30T10:50:05;99990.91;;;21.14;100.00
13734;BME280;43298;52.560;13.508;2023-08-30T10:52:32;99985.63;;;21.32;100.00
13734;BME280;43298;52.560;13.508;2023-08-30T10:55:14;99980.59;;;21.38;100.00
13734;BME280;43298;52.560;13.508;2023-08-30T10:57:45;99979.91;;;21.89;100.00
13734;BME280;43298;52.560;13.508;2023-08-30T11:00:23;99976.03;;;21.75;100.00
13734;BME280;43298;52.560;13.508;2023-08-30T11:02:51;99965.06;;;22.39;100.00
13734;BME280;43298;52.560;13.508;2023-08-30T11:05:22;99981.38;;;22.09;100.00
13734;BME280;43298;52.560;13.508;2023-08-30T11:07:49;99982.84;;;21.68;100.00
13734;BME280;43298;52.560;13.508;2023-08-30T11:10:16;99977.88;;;21.65;100.00
13734;BME280;43298;52.560;13.508;2023-08-30T11:12:44;99973.16;;;22.45;100.00
13734;BME280;43298;52.560;13.508;2023-08-30T11:15:11;99978.13;;;22.48;100.00
13734;BME280;43298;52.560;13.508;2023-08-30T11:17:41;99972.63;;;22.67;100.00
13734;BME280;43298;52.560;13.508;2023-08-30T11:22:46;100004.03;;;22.02;100.00
13734;BME280;43298;52.560;13.508;2023-08-30T11:25:14;100000.22;;;21.61;100.00
13734;BME280;43298;52.560;13.508;2023-08-30T11:27:41;99990.06;;;21.66;100.00
13734;BME280;43298;52.560;13.508;2023-08-30T11:30:10;99984.88;;;21.92;100.00
13734;BME280;43298;52.560;13.508;2023-08-30T11:32:40;100003.97;;;22.45;100.00
13734;BME280;43298;52.560;13.508;2023-08-30T11:35:08;100018.03;;;22.87;100.00
13734;BME280;43298;52.560;13.508;2023-08-30T11:37:34;100018.34;;;22.84;100.00
13734;BME280;43298;52.560;13.508;2023-08-30T11:40:02;100028.66;;;22.69;100.00
13734;BME280;43298;52.560;13.508;2023-08-30T11:42:30;100030.22;;;22.54;100.00
13734;BME280;43298;52.560;13.508;2023-08-30T11:44:58;100038.06;;;22.46;100.00
13734;BME280;43298;52.560;13.508;2023-08-30T11:47:25;100045.28;;;22.62;100.00
13734;BME280;43298;52.560;13.508;2023-08-30T11:49:58;100045.22;;;22.11;100.00
13734;BME280;43298;52.560;13.508;2023-08-30T11:52:25;100043.66;;;22.43;100.00
13734;BME280;43298;52.560;13.508;2023-08-30T11:54:52;100059.75;;;22.40;100.00
13734;BME280;43298;52.560;13.508;2023-08-30T11:57:19;100064.59;;;22.45;100.00
13734;BME280;43298;52.560;13.508;2023-08-30T11:59:46;100071.41;;;22.30;100.00
13734;BME280;43298;52.560;13.508;2023-08-30T12:02:14;100082.00;;;22.20;100.00
13734;BME280;43298;52.560;13.508;2023-08-30T12:04:45;100082.59;;;22.49;100.00
13734;BME280;43298;52.560;13.508;2023-08-30T12:07:25;100073.06;;;23.23;100.00
13734;BME280;43298;52.560;13.508;2023-08-30T12:09:51;100094.94;;;22.74;100.00
13734;BME280;43298;52.560;13.508;2023-08-30T12:12:17;100096.13;;;22.80;100.00
13734;BME280;43298;52.560;13.508;2023-08-30T12:14:43;100089.44;;;22.68;100.00
13734;BME280;43298;52.560;13.508;2023-08-30T12:17:09;100086.97;;;22.41;100.00
13734;BME280;43298;52.560;13.508;2023-08-30T12:19:37;100088.03;;;22.48;100.00
13734;BME280;43298;52.560;13.508;2023-08-30T12:22:06;100097.09;;;21.93;100.00
13734;BME280;43298;52.560;13.508;2023-08-30T12:24:45;100091.59;;;22.04;100.00
13734;BME280;43298;52.560;13.508;2023-08-30T12:27:12;100095.91;;;22.05;100.00
13734;BME280;43298;52.560;13.508;2023-08-30T12:29:38;100090.00;;;22.11;100.00
13734;BME280;43298;52.560;13.508;2023-08-30T12:32:04;100096.16;;;22.19;100.00
13734;BME280;43298;52.560;13.508;2023-08-30T12:34:30;100087.13;;;22.22;100.00
13734;BME280;43298;52.560;13.508;2023-08-30T12:36:56;100081.16;;;22.55;100.00
13734;BME280;43298;52.560;13.508;2023-08-30T12:39:22;100081.94;;;22.81;100.00
13734;BME280;43298;52.560;13.508;2023-08-30T12:41:48;100083.25;;;22.77;100.00
13734;BME280;43298;52.560;13.508;2023-08-30T12:44:14;100073.50;;;22.77;100.00
13734;BME280;43298;52.560;13.508;2023-08-30T12:46:40;100083.44;;;22.83;100.00
13734;BME280;43298;52.560;13.508;2023-08-30T12:49:05;100084.25;;;22.76;100.00